Time;durP1;ratioP1;P1;durP2;ratioP2;P2;SDS_P1;SDS_P2;PMS_P1;PMS_P2;Temp;Humidity;BMP_temperature;BMP_pressure;BME280_temperature;BME280_humidity;BME280_pressure;Samples;Min_cycle;Max_cycle;Signal;HPM_P1;HPM_P2
2021/05/24 00:02:22;;;;;;;17.03;8.77;;;7.00;99.90;;;;;;4449592;28;656925;-66
2021/05/24 00:05:12;;;;;;;16.67;8.40;;;6.90;99.90;;;;;;4436247;28;656727;-66
2021/05/24 00:07:59;;;;;;;18.70;8.73;;;6.80;99.90;;;;;;4417082;28;656955;-66
2021/05/24 00:10:46;;;;;;;17.53;8.17;;;6.70;99.90;;;;;;4435760;28;657845;-66
2021/05/24 00:13:33;;;;;;;15.03;8.13;;;6.60;99.90;;;;;;4432757;28;656449;-66
2021/05/24 00:16:20;;;;;;;16.23;8.10;;;6.60;99.90;;;;;;4457711;28;658003;-66
2021/05/24 00:19:07;;;;;;;14.87;7.50;;;6.50;99.90;;;;;;4447765;28;656755;-67
2021/05/24 00:21:55;;;;;;;14.83;7.67;;;6.40;99.90;;;;;;4435938;28;656468;-67
2021/05/24 00:24:42;;;;;;;13.53;7.60;;;6.40;99.90;;;;;;4420836;28;656968;-67
2021/05/24 00:27:29;;;;;;;13.67;7.60;;;6.30;99.90;;;;;;4440183;28;656273;-66
2021/05/24 00:30:17;;;;;;;13.77;6.73;;;6.20;99.90;;;;;;4435911;28;657080;-66
2021/05/24 00:33:04;;;;;;;15.17;7.13;;;6.20;99.90;;;;;;4417103;28;656925;-66
2021/05/24 00:35:51;;;;;;;13.77;7.17;;;6.10;99.90;;;;;;4455039;28;656950;-66
2021/05/24 00:38:39;;;;;;;13.37;7.40;;;6.10;99.90;;;;;;4434203;28;656582;-66
2021/05/24 00:41:26;;;;;;;17.97;6.67;;;6.00;99.90;;;;;;4434049;28;656868;-66
2021/05/24 00:44:12;;;;;;;20.23;8.27;;;6.00;99.90;;;;;;4416856;28;656562;-66
2021/05/24 00:46:59;;;;;;;16.97;8.47;;;6.00;99.90;;;;;;4435177;28;657185;-66
2021/05/24 00:49:46;;;;;;;21.27;9.30;;;6.10;99.90;;;;;;4452679;28;656412;-66
2021/05/24 00:52:33;;;;;;;20.13;8.03;;;6.20;99.90;;;;;;4433576;28;656769;-67
2021/05/24 00:55:21;;;;;;;22.20;8.63;;;6.30;99.90;;;;;;4438800;28;656913;-66
2021/05/24 00:58:08;;;;;;;16.77;7.97;;;6.30;99.90;;;;;;4433015;28;657055;-66
2021/05/24 01:00:55;;;;;;;19.00;8.57;;;6.40;99.90;;;;;;4456540;28;657027;-66
2021/05/24 01:03:42;;;;;;;15.43;7.67;;;6.30;99.90;;;;;;4437934;28;656741;-67
2021/05/24 01:06:29;;;;;;;17.60;8.43;;;6.40;99.90;;;;;;4456433;28;656838;-66
2021/05/24 01:09:16;;;;;;;23.37;8.40;;;6.50;99.90;;;;;;4435456;28;656883;-66
2021/05/24 01:12:05;;;;;;;19.70;8.53;;;6.70;99.90;;;;;;4411962;28;656437;-66
2021/05/24 01:14:52;;;;;;;16.80;8.90;;;6.60;99.90;;;;;;4416289;28;656824;-67
2021/05/24 01:17:39;;;;;;;18.40;8.30;;;6.70;99.90;;;;;;4456355;28;657551;-66
2021/05/24 01:20:27;;;;;;;18.63;8.35;;;6.70;99.90;;;;;;4434982;28;656776;-67
2021/05/24 01:23:17;;;;;;;18.73;8.20;;;6.70;99.90;;;;;;4411862;28;657105;-66
2021/05/24 01:26:04;;;;;;;19.83;8.93;;;6.70;99.90;;;;;;4412505;28;657664;-67
2021/05/24 01:28:52;;;;;;;18.37;8.10;;;6.70;99.90;;;;;;4438646;28;656162;-66
2021/05/24 01:31:39;;;;;;;23.23;9.60;;;6.60;99.90;;;;;;4429418;28;657471;-66
2021/05/24 01:34:26;;;;;;;19.13;8.00;;;6.60;99.90;;;;;;4434749;28;656648;-67
2021/05/24 01:37:13;;;;;;;14.00;7.77;;;6.70;99.90;;;;;;4414739;28;656549;-67
2021/05/24 01:40:01;;;;;;;16.83;7.83;;;6.70;99.90;;;;;;4434627;28;657797;-66
2021/05/24 01:42:48;;;;;;;22.47;8.60;;;6.50;99.90;;;;;;4433047;28;656204;-66
2021/05/24 01:45:35;;;;;;;17.90;8.27;;;6.50;99.90;;;;;;4435142;28;657573;-66
2021/05/24 01:48:22;;;;;;;22.53;8.83;;;6.40;99.90;;;;;;4451987;28;657031;-66
2021/05/24 01:51:08;;;;;;;20.20;8.87;;;6.50;99.90;;;;;;4433482;28;656703;-66
2021/05/24 01:53:55;;;;;;;20.13;8.17;;;6.50;99.90;;;;;;4437504;28;657335;-66
2021/05/24 01:56:43;;;;;;;13.17;7.60;;;6.30;99.90;;;;;;4419661;28;656377;-67
2021/05/24 01:59:30;;;;;;;20.90;9.10;;;6.30;99.90;;;;;;4439039;28;657614;-67
2021/05/24 02:02:17;;;;;;;16.97;8.77;;;6.20;99.90;;;;;;4419748;28;656720;-67
2021/05/24 02:05:05;;;;;;;15.73;8.73;;;6.30;99.90;;;;;;4459463;28;656593;-66
2021/05/24 02:07:52;;;;;;;17.20;8.70;;;6.30;99.90;;;;;;4435379;28;657121;-67
2021/05/24 02:10:39;;;;;;;16.15;8.02;;;6.20;99.90;;;;;;4459887;28;657303;-67
2021/05/24 02:13:28;;;;;;;21.70;8.20;;;6.20;99.90;;;;;;4459668;28;656608;-66
2021/05/24 02:16:15;;;;;;;23.50;8.97;;;6.20;99.90;;;;;;4415000;28;657421;-67
2021/05/24 02:19:02;;;;;;;19.63;8.77;;;6.10;99.90;;;;;;4418722;28;656718;-67
2021/05/24 02:21:49;;;;;;;17.73;8.47;;;6.10;99.90;;;;;;4441953;28;656320;-66
2021/05/24 02:24:36;;;;;;;18.67;8.07;;;6.00;99.90;;;;;;4441136;28;656782;-66
2021/05/24 02:27:23;;;;;;;19.20;8.02;;;6.00;99.90;;;;;;4431962;28;656516;-66
2021/05/24 02:30:12;;;;;;;22.57;7.30;;;6.00;99.90;;;;;;4459070;28;657670;-66
2021/05/24 02:32:59;;;;;;;16.83;7.53;;;6.00;99.90;;;;;;4436434;28;657693;-67
2021/05/24 02:35:46;;;;;;;16.70;7.13;;;6.00;99.90;;;;;;4437196;28;656689;-66
2021/05/24 02:38:33;;;;;;;14.13;7.07;;;5.90;99.90;;;;;;4418757;28;656639;-66
2021/05/24 02:41:20;;;;;;;16.53;7.17;;;5.90;99.90;;;;;;4441767;28;657443;-66
2021/05/24 02:44:07;;;;;;;20.35;7.55;;;5.80;99.90;;;;;;4440856;28;656852;-66
2021/05/24 02:46:55;;;;;;;14.77;6.80;;;5.80;99.90;;;;;;4458898;28;656003;-66
2021/05/24 02:49:44;;;;;;;13.02;6.75;;;5.70;99.90;;;;;;4422730;28;656582;-66
2021/05/24 02:52:31;;;;;;;15.20;6.97;;;5.70;99.90;;;;;;4437448;28;657074;-66
2021/05/24 02:55:18;;;;;;;15.80;7.20;;;5.70;99.90;;;;;;4436157;28;656538;-66
2021/05/24 02:58:05;;;;;;;14.77;7.10;;;5.60;99.90;;;;;;4441535;28;657405;-66
2021/05/24 03:00:52;;;;;;;16.93;7.77;;;5.70;99.90;;;;;;4435823;28;656562;-66
2021/05/24 03:03:41;;;;;;;16.87;8.50;;;5.60;99.90;;;;;;4458505;28;656987;-66
2021/05/24 03:06:28;;;;;;;21.97;8.50;;;5.60;99.90;;;;;;4415588;28;656475;-66
2021/05/24 03:09:15;;;;;;;29.73;10.13;;;5.60;99.90;;;;;;4437121;28;656737;-66
2021/05/24 03:12:02;;;;;;;28.93;11.07;;;5.60;99.90;;;;;;4434655;28;657832;-66
2021/05/24 03:14:49;;;;;;;20.60;9.03;;;5.50;99.90;;;;;;4457227;28;658665;-66
2021/05/24 03:17:37;;;;;;;16.80;7.23;;;5.50;99.90;;;;;;4454605;28;656953;-66
2021/05/24 03:20:25;;;;;;;18.50;8.40;;;5.50;99.90;;;;;;4435706;28;657105;-66
2021/05/24 03:23:12;;;;;;;17.47;7.80;;;5.50;99.90;;;;;;4453423;28;656453;-66
2021/05/24 03:25:59;;;;;;;11.60;6.80;;;5.50;99.90;;;;;;4459038;28;656157;-66
2021/05/24 03:28:46;;;;;;;16.70;8.00;;;5.50;99.90;;;;;;4454158;28;656765;-66
2021/05/24 03:31:33;;;;;;;18.07;7.93;;;5.60;99.90;;;;;;4435749;28;656546;-66
2021/05/24 03:34:20;;;;;;;14.67;8.17;;;5.60;99.90;;;;;;4440135;28;657166;-66
2021/05/24 03:37:08;;;;;;;15.10;8.00;;;5.60;99.90;;;;;;4426271;28;656992;-66
2021/05/24 03:39:55;;;;;;;15.77;8.47;;;5.70;99.90;;;;;;4454262;28;657207;-66
2021/05/24 03:42:42;;;;;;;17.00;9.93;;;5.70;99.90;;;;;;4421210;28;657165;-66
2021/05/24 03:45:31;;;;;;;20.73;9.90;;;5.70;99.90;;;;;;4454085;28;656545;-66
2021/05/24 03:48:18;;;;;;;19.13;10.67;;;5.80;99.90;;;;;;4434978;28;657172;-66
2021/05/24 03:51:06;;;;;;;15.57;9.13;;;5.90;99.90;;;;;;4452923;28;658881;-66
2021/05/24 03:53:54;;;;;;;72.87;32.07;;;6.00;99.90;;;;;;4435125;28;656529;-66
2021/05/24 03:56:41;;;;;;;21.60;12.90;;;6.00;99.90;;;;;;4435683;28;658133;-66
2021/05/24 03:59:27;;;;;;;61.43;29.10;;;6.10;99.90;;;;;;4416244;28;657652;-67
2021/05/24 04:02:14;;;;;;;33.60;18.67;;;6.20;99.90;;;;;;4450793;28;659342;-66
2021/05/24 04:05:08;;;;;;;37.70;18.47;;;6.30;99.90;;;;;;4452054;28;657613;-66
2021/05/24 04:07:57;;;;;;;36.53;20.53;;;6.40;99.90;;;;;;4429564;28;658027;-66
2021/05/24 04:10:50;;;;;;;40.50;20.63;;;6.50;99.90;;;;;;4429562;28;659088;-66
2021/05/24 04:13:37;;;;;;;38.40;19.97;;;6.60;99.90;;;;;;4397336;28;657325;-67
2021/05/24 04:16:24;;;;;;;38.83;17.97;;;6.80;99.90;;;;;;4456471;28;657213;-66
2021/05/24 04:19:12;;;;;;;28.60;16.53;;;6.90;99.90;;;;;;4452462;28;657832;-66
2021/05/24 04:21:58;;;;;;;33.33;15.30;;;7.00;99.90;;;;;;4433335;28;657321;-66
2021/05/24 04:24:45;;;;;;;25.93;14.47;;;7.10;99.90;;;;;;4452109;28;658319;-66
2021/05/24 04:27:33;;;;;;;27.40;13.93;;;7.30;99.90;;;;;;4433049;28;658272;-66
2021/05/24 04:30:21;;;;;;;21.17;13.37;;;7.30;99.90;;;;;;4455965;28;658005;-66
2021/05/24 04:33:08;;;;;;;24.93;14.10;;;7.40;99.90;;;;;;4433152;28;657743;-66
2021/05/24 04:35:55;;;;;;;27.70;14.90;;;7.60;99.90;;;;;;4433899;28;659351;-66
2021/05/24 04:38:42;;;;;;;23.13;12.33;;;7.80;99.90;;;;;;4427865;28;657882;-66
2021/05/24 04:41:29;;;;;;;23.30;12.87;;;7.90;99.90;;;;;;4438707;28;657180;-66
2021/05/24 04:44:19;;;;;;;25.27;13.17;;;8.20;99.90;;;;;;4451849;28;657541;-66
2021/05/24 04:47:07;;;;;;;24.17;12.80;;;8.30;99.90;;;;;;4411974;28;658524;-66
2021/05/24 04:49:54;;;;;;;23.30;11.20;;;8.50;99.90;;;;;;4416108;28;658031;-66
2021/05/24 04:52:41;;;;;;;21.03;11.03;;;8.60;99.90;;;;;;4451643;28;657631;-66
2021/05/24 04:55:28;;;;;;;16.83;9.13;;;8.80;99.90;;;;;;4432924;28;657118;-66
2021/05/24 04:58:15;;;;;;;13.33;7.50;;;8.90;99.90;;;;;;4452902;28;657883;-66
2021/05/24 05:01:02;;;;;;;14.27;6.53;;;9.00;99.90;;;;;;4452659;28;656641;-66
2021/05/24 05:03:49;;;;;;;11.23;5.10;;;9.20;99.90;;;;;;4430018;28;657144;-66
2021/05/24 05:06:36;;;;;;;7.47;4.33;;;9.30;99.90;;;;;;4434869;28;656606;-67
2021/05/24 05:09:24;;;;;;;9.13;3.83;;;9.50;99.90;;;;;;4416818;28;655438;-66
2021/05/24 05:12:11;;;;;;;8.33;4.10;;;9.70;99.90;;;;;;4436836;28;655119;-66
2021/05/24 05:14:59;;;;;;;7.80;4.10;;;9.80;99.90;;;;;;4413682;28;655692;-66
2021/05/24 05:17:46;;;;;;;9.67;4.60;;;10.00;99.90;;;;;;4453994;28;655991;-66
2021/05/24 05:20:33;;;;;;;8.30;3.80;;;10.20;99.90;;;;;;4433184;28;656708;-66
2021/05/24 05:23:20;;;;;;;9.13;3.20;;;10.40;99.90;;;;;;4452222;28;657962;-66
2021/05/24 05:26:07;;;;;;;7.30;3.97;;;10.50;99.90;;;;;;4433374;28;656579;-67
2021/05/24 05:28:54;;;;;;;6.70;3.13;;;10.60;99.90;;;;;;4456311;28;656689;-66
2021/05/24 05:31:41;;;;;;;5.47;2.80;;;10.80;99.90;;;;;;4434997;28;656825;-66
2021/05/24 05:34:29;;;;;;;6.83;2.70;;;10.90;99.90;;;;;;4433768;28;656715;-67
2021/05/24 05:37:18;;;;;;;4.47;2.43;;;11.10;99.90;;;;;;4434746;28;656766;-66
2021/05/24 05:40:06;;;;;;;4.40;2.47;;;11.20;99.90;;;;;;4411978;28;657098;-66
2021/05/24 05:42:53;;;;;;;9.13;2.70;;;11.30;99.90;;;;;;4433694;28;656757;-66
2021/05/24 05:45:40;;;;;;;4.00;2.10;;;11.50;99.90;;;;;;4435149;28;657741;-66
2021/05/24 05:48:27;;;;;;;5.13;2.50;;;11.50;99.90;;;;;;4434636;28;656380;-67
2021/05/24 05:51:15;;;;;;;5.57;3.00;;;11.60;99.90;;;;;;4451026;28;656405;-66
2021/05/24 05:54:03;;;;;;;4.07;2.28;;;11.80;99.90;;;;;;4437205;28;656550;-66
2021/05/24 05:56:49;;;;;;;4.83;2.77;;;12.00;99.90;;;;;;4452156;28;657644;-66
2021/05/24 05:59:36;;;;;;;5.13;2.50;;;12.10;99.90;;;;;;4456418;28;656251;-66
2021/05/24 06:02:23;;;;;;;6.10;2.53;;;12.30;99.90;;;;;;4433770;28;656452;-66
2021/05/24 06:05:11;;;;;;;4.50;2.27;;;12.50;99.90;;;;;;4452197;28;656541;-66
2021/05/24 06:07:59;;;;;;;7.33;2.47;;;12.70;99.90;;;;;;4433266;28;656496;-66
2021/05/24 06:10:46;;;;;;;4.60;2.13;;;12.90;99.90;;;;;;4451591;28;656523;-66
2021/05/24 06:13:33;;;;;;;7.10;2.30;;;13.00;99.90;;;;;;4431049;28;656308;-66
2021/05/24 06:16:20;;;;;;;3.13;1.77;;;13.20;99.90;;;;;;4449242;28;658018;-65
2021/05/24 06:19:07;;;;;;;2.90;2.00;;;13.30;99.90;;;;;;4416028;28;656646;-66
2021/05/24 06:21:54;;;;;;;2.65;1.58;;;13.50;99.90;;;;;;4456444;28;656544;-65
2021/05/24 06:24:42;;;;;;;2.47;1.70;;;13.80;99.90;;;;;;4451923;28;656515;-66
2021/05/24 06:27:29;;;;;;;6.10;1.83;;;14.00;99.90;;;;;;4433586;28;657916;-65
2021/05/24 06:30:17;;;;;;;2.97;1.63;;;14.30;99.90;;;;;;4452177;28;656607;-65
2021/05/24 06:33:04;;;;;;;5.73;2.10;;;14.50;99.90;;;;;;4428915;28;657221;-65
2021/05/24 06:35:51;;;;;;;3.87;1.73;;;14.70;99.90;;;;;;4449655;28;657054;-65
2021/05/24 06:38:38;;;;;;;1.90;1.30;;;14.90;99.90;;;;;;4413637;28;656839;-66
2021/05/24 06:41:26;;;;;;;4.73;2.10;;;15.00;99.90;;;;;;4440194;28;657034;-65
2021/05/24 06:44:13;;;;;;;3.03;1.73;;;15.20;99.90;;;;;;4418936;28;656944;-66
2021/05/24 06:47:00;;;;;;;7.17;1.90;;;15.30;99.90;;;;;;4442537;28;657586;-65
2021/05/24 06:49:47;;;;;;;4.60;2.70;;;15.50;99.90;;;;;;4430292;28;656797;-66
2021/05/24 06:52:34;;;;;;;3.00;2.20;;;15.60;99.90;;;;;;4459266;28;657245;-65
2021/05/24 06:55:21;;;;;;;6.67;2.93;;;15.50;99.90;;;;;;4455113;28;656648;-65
2021/05/24 06:58:09;;;;;;;6.40;3.20;;;15.50;99.90;;;;;;4435683;28;656310;-65
2021/05/24 07:00:56;;;;;;;4.60;3.20;;;15.60;99.90;;;;;;4437359;28;657414;-65
2021/05/24 07:03:43;;;;;;;6.50;3.10;;;15.70;99.90;;;;;;4419367;28;656621;-65
2021/05/24 07:06:31;;;;;;;6.83;2.90;;;15.80;99.90;;;;;;4447015;28;657077;-65
2021/05/24 07:09:18;;;;;;;5.17;2.80;;;15.90;99.90;;;;;;4418492;28;656372;-65
2021/05/24 07:12:06;;;;;;;7.30;2.80;;;15.90;99.90;;;;;;4436876;28;657405;-65
2021/05/24 07:14:54;;;;;;;5.43;2.53;;;16.20;99.90;;;;;;4418079;28;656478;-66
2021/05/24 07:17:41;;;;;;;13.77;2.97;;;16.30;99.90;;;;;;4454594;28;656630;-65
2021/05/24 07:20:28;;;;;;;6.53;3.00;;;16.20;99.90;;;;;;4417791;28;657942;-65
2021/05/24 07:23:15;;;;;;;5.13;2.43;;;16.40;99.90;;;;;;4436931;28;657870;-65
2021/05/24 07:26:02;;;;;;;4.17;2.00;;;16.30;99.90;;;;;;4434563;28;656632;-66
2021/05/24 07:28:49;;;;;;;3.23;1.60;;;16.40;99.90;;;;;;4458702;28;656381;-65
2021/05/24 07:31:37;;;;;;;2.85;1.38;;;16.60;99.90;;;;;;4454721;28;656795;-65
2021/05/24 07:34:24;;;;;;;2.80;1.10;;;16.70;99.90;;;;;;4435889;28;656770;-65
2021/05/24 07:37:11;;;;;;;3.35;1.35;;;16.90;99.90;;;;;;4437152;28;656819;-65
2021/05/24 07:39:58;;;;;;;2.53;1.20;;;17.10;99.90;;;;;;4435050;28;656711;-66
2021/05/24 07:42:46;;;;;;;4.07;1.50;;;17.20;99.90;;;;;;4437309;28;658244;-65
2021/05/24 07:45:33;;;;;;;2.60;1.57;;;17.40;99.90;;;;;;4435050;28;656509;-65
2021/05/24 07:48:21;;;;;;;3.65;1.50;;;17.20;99.90;;;;;;4455113;28;657500;-65
2021/05/24 07:51:09;;;;;;;2.77;1.40;;;17.10;99.90;;;;;;4434547;28;656817;-66
2021/05/24 07:53:56;;;;;;;5.03;1.20;;;17.40;99.90;;;;;;4436838;28;657007;-65
2021/05/24 07:56:43;;;;;;;3.87;1.10;;;17.60;99.90;;;;;;4435356;28;656523;-65
2021/05/24 07:59:30;;;;;;;1.23;0.80;;;17.80;99.90;;;;;;4436800;28;657515;-66
2021/05/24 08:02:17;;;;;;;2.13;1.10;;;18.00;99.90;;;;;;4434950;28;656567;-66
2021/05/24 08:05:07;;;;;;;4.68;1.40;;;17.80;99.90;;;;;;4440095;28;656049;-65
2021/05/24 08:07:54;;;;;;;3.67;1.10;;;17.90;99.90;;;;;;4416880;28;656475;-65
2021/05/24 08:10:41;;;;;;;3.40;1.10;;;18.10;99.90;;;;;;4436401;28;656621;-65
2021/05/24 08:13:29;;;;;;;2.30;1.17;;;18.10;99.90;;;;;;4435106;28;656609;-65
2021/05/24 08:16:16;;;;;;;1.83;1.17;;;17.90;99.90;;;;;;4453683;28;656907;-65
2021/05/24 08:19:03;;;;;;;3.00;1.00;;;17.90;99.90;;;;;;4434731;28;656756;-65
2021/05/24 08:21:51;;;;;;;2.97;1.07;;;18.10;99.90;;;;;;4457495;28;657472;-65
2021/05/24 08:24:38;;;;;;;3.63;1.07;;;18.30;99.90;;;;;;4434419;28;656763;-66
2021/05/24 08:27:25;;;;;;;3.70;1.40;;;18.50;99.90;;;;;;4457352;28;656691;-65
2021/05/24 08:30:13;;;;;;;3.07;1.60;;;18.60;99.90;;;;;;4441452;28;656942;-66
2021/05/24 08:33:00;;;;;;;2.47;1.43;;;18.40;99.90;;;;;;4435844;28;657110;-65
2021/05/24 08:35:47;;;;;;;5.77;1.90;;;18.40;99.90;;;;;;4417283;28;656437;-66
2021/05/24 08:38:35;;;;;;;6.37;2.47;;;18.50;99.90;;;;;;4457214;28;656450;-65
2021/05/24 08:41:23;;;;;;;3.50;1.10;;;18.80;99.90;;;;;;4434298;28;657091;-65
2021/05/24 08:44:10;;;;;;;1.60;0.90;;;19.10;99.90;;;;;;4436358;28;657118;-65
2021/05/24 08:46:57;;;;;;;2.57;0.80;;;19.00;99.90;;;;;;4453010;28;656346;-65
2021/05/24 08:49:44;;;;;;;3.00;0.90;;;18.90;99.90;;;;;;4434471;28;657793;-66
2021/05/24 08:52:31;;;;;;;3.10;0.97;;;18.60;99.80;;;;;;4453121;28;657410;-65
2021/05/24 08:55:19;;;;;;;3.10;1.27;;;18.70;99.90;;;;;;4434079;28;656736;-65
2021/05/24 08:58:08;;;;;;;3.63;1.13;;;19.00;99.90;;;;;;4452824;28;656771;-65
2021/05/24 09:00:55;;;;;;;3.42;1.05;;;19.10;99.90;;;;;;4426945;28;657995;-65
2021/05/24 09:03:47;;;;;;;3.97;1.40;;;19.10;99.90;;;;;;4452189;28;656848;-65
2021/05/24 09:06:38;;;;;;;2.83;1.00;;;19.00;99.90;;;;;;4434059;28;656743;-65
2021/05/24 09:09:25;;;;;;;2.83;1.30;;;19.00;99.90;;;;;;4412641;28;657812;-65
2021/05/24 09:12:17;;;;;;;3.83;1.07;;;19.40;99.90;;;;;;4444705;28;657259;-66
2021/05/24 09:15:08;;;;;;;2.57;1.13;;;19.90;99.90;;;;;;4434140;28;657732;-65
2021/05/24 09:17:57;;;;;;;4.30;1.00;;;19.80;99.90;;;;;;4429477;28;658238;-65
2021/05/24 09:20:45;;;;;;;1.30;0.70;;;20.00;99.90;;;;;;4412901;28;657072;-65
2021/05/24 09:23:35;;;;;;;3.47;0.93;;;20.30;99.90;;;;;;4445686;28;656389;-66
2021/05/24 09:26:22;;;;;;;2.60;0.80;;;20.40;98.10;;;;;;4424507;28;656777;-66
2021/05/24 09:29:10;;;;;;;2.23;0.73;;;20.20;96.80;;;;;;4439216;28;656743;-65
2021/05/24 09:32:16;;;;;;;1.30;0.90;;;20.30;97.40;;;;;;4433636;28;656514;-66
2021/05/24 09:35:05;;;;;;;1.53;0.80;;;20.10;96.80;;;;;;4406619;28;657679;-66
2021/05/24 09:37:52;;;;;;;2.53;0.60;;;20.20;97.20;;;;;;4443951;28;656321;-66
2021/05/24 09:40:39;;;;;;;3.13;0.87;;;20.20;96.40;;;;;;4456791;28;657067;-65
2021/05/24 09:43:44;;;;;;;2.07;0.90;;;20.10;96.40;;;;;;4452519;28;657147;-65
2021/05/24 09:46:32;;;;;;;3.20;0.90;;;20.20;97.40;;;;;;4412087;28;656878;-65
2021/05/24 09:49:22;;;;;;;1.50;0.90;;;20.30;97.20;;;;;;4421915;28;657803;-65
2021/05/24 09:52:09;;;;;;;1.70;0.83;;;20.20;96.10;;;;;;4433654;28;657190;-65
2021/05/24 09:54:56;;;;;;;1.07;0.87;;;20.30;97.70;;;;;;4434612;28;656415;-65
2021/05/24 09:57:53;;;;;;;1.27;0.90;;;20.30;97.20;;;;;;4433453;28;656607;-65
2021/05/24 10:00:43;;;;;;;1.30;0.73;;;20.30;95.50;;;;;;4433453;28;656731;-65
2021/05/24 10:03:33;;;;;;;4.13;0.90;;;20.50;96.80;;;;;;4412610;28;657120;-65
2021/05/24 10:06:20;;;;;;;1.67;0.87;;;20.40;95.30;;;;;;4412468;28;657264;-65
2021/05/24 10:09:09;;;;;;;3.43;0.90;;;20.70;97.50;;;;;;4415830;28;657315;-66
2021/05/24 10:11:57;;;;;;;0.73;0.73;;;20.70;96.10;;;;;;4450116;28;656249;-65
2021/05/24 10:14:44;;;;;;;1.93;0.90;;;20.90;96.10;;;;;;4414585;28;657488;-66
2021/05/24 10:17:31;;;;;;;3.97;1.03;;;20.90;93.40;;;;;;4455731;28;656763;-65
2021/05/24 10:20:20;;;;;;;5.23;0.80;;;21.00;94.70;;;;;;4417725;28;656899;-65
2021/05/24 10:23:07;;;;;;;0.90;0.63;;;21.30;93.40;;;;;;4450101;28;657369;-66
2021/05/24 10:25:57;;;;;;;2.80;0.70;;;21.30;91.60;;;;;;4460136;28;656500;-65
2021/05/24 10:28:45;;;;;;;1.03;0.80;;;21.20;90.70;;;;;;4432880;28;657917;-65
2021/05/24 10:31:33;;;;;;;2.03;0.90;;;21.30;91.00;;;;;;4435491;28;656417;-66
2021/05/24 10:34:20;;;;;;;0.80;0.70;;;21.50;91.60;;;;;;4455334;28;657750;-65
2021/05/24 10:37:09;;;;;;;2.87;0.80;;;21.40;91.00;;;;;;4436593;28;656786;-67
2021/05/24 10:40:00;;;;;;;2.27;1.00;;;21.50;92.10;;;;;;4455279;28;656953;-65
2021/05/24 10:42:47;;;;;;;4.87;1.03;;;21.20;90.00;;;;;;4425593;28;656829;-66
2021/05/24 10:45:34;;;;;;;4.30;1.10;;;20.80;89.10;;;;;;4459586;28;656923;-65
2021/05/24 10:48:21;;;;;;;2.57;0.93;;;20.60;91.20;;;;;;4438083;28;656561;-66
2021/05/24 10:51:10;;;;;;;13.03;1.37;;;20.70;92.80;;;;;;4417375;28;656772;-65
2021/05/24 10:53:58;;;;;;;1.83;0.95;;;20.90;93.20;;;;;;4421510;28;657594;-66
2021/05/24 10:56:45;;;;;;;1.77;0.80;;;20.80;90.50;;;;;;4438150;28;657042;-65
2021/05/24 11:00:00;;;;;;;1.60;0.80;;;21.00;91.60;;;;;;4436132;28;656815;-66
2021/05/24 11:02:52;;;;;;;2.57;1.00;;;21.20;91.10;;;;;;4419435;28;656531;-66
2021/05/24 11:05:39;;;;;;;4.30;0.80;;;21.70;90.80;;;;;;4436186;28;657443;-65
2021/05/24 11:08:27;;;;;;;1.70;1.10;;;22.10;91.60;;;;;;4454594;28;656459;-66
2021/05/24 11:11:23;;;;;;;3.13;0.90;;;22.20;91.30;;;;;;4435775;28;656955;-65
2021/05/24 11:14:10;;;;;;;2.27;1.17;;;22.10;90.20;;;;;;4432035;28;656680;-66
2021/05/24 11:16:57;;;;;;;4.67;1.03;;;22.30;90.90;;;;;;4437430;28;656610;-66
2021/05/24 11:19:44;;;;;;;1.23;1.00;;;22.40;90.90;;;;;;4453535;28;657393;-66
2021/05/24 11:22:34;;;;;;;0.87;0.80;;;22.50;90.40;;;;;;4437422;28;656546;-66
2021/05/24 11:28:33;;;;;;;3.70;1.10;;;22.80;88.70;;;;;;4408754;28;656819;-65
2021/05/24 11:31:21;;;;;;;3.17;0.70;;;23.40;90.10;;;;;;4431796;28;656634;-65
2021/05/24 11:34:09;;;;;;;3.03;0.97;;;23.70;88.20;;;;;;4431843;28;656958;-65
2021/05/24 11:36:56;;;;;;;2.63;0.90;;;23.60;87.80;;;;;;4436753;28;657109;-66
2021/05/24 11:39:47;;;;;;;3.43;0.90;;;24.20;86.00;;;;;;4435045;28;656472;-65
2021/05/24 11:42:37;;;;;;;2.60;0.90;;;24.20;82.90;;;;;;4413937;28;657750;-65
2021/05/24 11:45:27;;;;;;;2.30;1.00;;;23.80;82.00;;;;;;4418428;28;656564;-66
2021/05/24 11:48:14;;;;;;;3.10;0.90;;;23.90;82.70;;;;;;4435254;28;658089;-65
2021/05/24 11:51:03;;;;;;;2.43;0.93;;;24.10;88.10;;;;;;4437234;28;657595;-66
2021/05/24 11:53:59;;;;;;;2.78;1.00;;;24.20;85.00;;;;;;4413910;28;657230;-66
2021/05/24 11:56:47;;;;;;;1.73;0.90;;;24.00;79.70;;;;;;4413705;28;656865;-65
2021/05/24 11:59:34;;;;;;;3.20;0.80;;;24.10;81.30;;;;;;4417801;28;657145;-66
2021/05/24 12:02:23;;;;;;;1.17;0.70;;;24.20;84.40;;;;;;4436902;28;656809;-65
2021/05/24 12:05:11;;;;;;;1.37;0.80;;;24.60;80.80;;;;;;4430905;28;657834;-65
2021/05/24 12:07:58;;;;;;;2.42;0.70;;;25.00;81.30;;;;;;4432000;28;656416;-66
2021/05/24 12:10:49;;;;;;;4.07;0.90;;;25.20;81.00;;;;;;4436323;28;657340;-65
2021/05/24 12:13:54;;;;;;;1.67;1.15;;;24.70;81.40;;;;;;4413905;28;656986;-65
2021/05/24 12:16:41;;;;;;;4.05;1.23;;;24.70;79.00;;;;;;4414154;28;656673;-65
2021/05/24 12:19:30;;;;;;;2.35;0.90;;;24.50;81.70;;;;;;4431319;28;656514;-65
2021/05/24 12:22:17;;;;;;;3.60;1.02;;;24.20;77.90;;;;;;4453727;28;656935;-65
2021/05/24 12:25:04;;;;;;;2.65;1.08;;;24.50;82.30;;;;;;4434672;28;657989;-65
2021/05/24 12:27:51;;;;;;;2.50;1.30;;;24.30;77.30;;;;;;4435805;28;656564;-65
2021/05/24 12:30:43;;;;;;;2.10;0.93;;;24.40;81.40;;;;;;4430704;28;656797;-65
2021/05/24 12:33:30;;;;;;;1.03;0.90;;;24.40;79.60;;;;;;4430801;28;657203;-65
2021/05/24 12:36:20;;;;;;;2.58;0.88;;;24.70;79.20;;;;;;4417001;28;656573;-66
2021/05/24 12:39:07;;;;;;;2.33;0.80;;;25.20;78.80;;;;;;4446890;28;656641;-66
2021/05/24 12:41:56;;;;;;;1.85;0.90;;;25.40;76.40;;;;;;4457740;28;656521;-66
2021/05/24 12:44:43;;;;;;;2.08;1.17;;;25.30;76.10;;;;;;4434297;28;656705;-65
2021/05/24 12:47:30;;;;;;;1.98;0.85;;;25.30;78.30;;;;;;4453570;28;657127;-65
2021/05/24 12:50:18;;;;;;;0.90;0.80;;;25.10;77.10;;;;;;4434614;28;656877;-66
2021/05/24 12:53:10;;;;;;;3.60;0.90;;;25.40;78.30;;;;;;4456698;28;657345;-65
2021/05/24 12:56:05;;;;;;;1.90;0.95;;;25.70;77.30;;;;;;4425783;28;657287;-66
2021/05/24 12:58:52;;;;;;;3.53;1.17;;;26.00;75.50;;;;;;4411469;28;656861;-66
2021/05/24 13:01:39;;;;;;;4.65;1.30;;;26.10;75.70;;;;;;4457179;28;657508;-65
2021/05/24 13:04:26;;;;;;;4.90;1.27;;;26.20;75.90;;;;;;4453208;28;656603;-65
2021/05/24 13:07:14;;;;;;;3.13;1.05;;;26.20;76.00;;;;;;4430464;28;656818;-66
2021/05/24 13:10:08;;;;;;;4.75;0.88;;;26.40;75.80;;;;;;4434944;28;656828;-66
2021/05/24 13:12:59;;;;;;;1.33;0.82;;;26.70;73.40;;;;;;4412209;28;656734;-66
2021/05/24 13:15:52;;;;;;;4.90;1.58;;;26.70;74.50;;;;;;4412514;28;656605;-66
2021/05/24 13:18:50;;;;;;;3.38;1.50;;;26.50;71.20;;;;;;4407006;28;657245;-65
2021/05/24 13:28:22;;;;;;;1.85;1.20;;;26.70;71.60;;;;;;4389343;28;657387;-66
2021/05/24 13:31:09;;;;;;;3.08;1.25;;;26.40;71.50;;;;;;4390018;28;657250;-65
2021/05/24 13:33:56;;;;;;;4.55;1.05;;;26.10;72.00;;;;;;4435035;28;656312;-65
2021/05/24 13:36:44;;;;;;;1.13;0.82;;;26.10;72.40;;;;;;4401157;28;656759;-65
2021/05/24 13:39:31;;;;;;;2.03;1.00;;;26.10;71.80;;;;;;4434907;28;656796;-65
2021/05/24 13:42:18;;;;;;;5.05;1.00;;;26.00;71.10;;;;;;4416061;28;656616;-65
2021/05/24 13:45:08;;;;;;;6.30;1.00;;;26.20;72.20;;;;;;4434920;28;657134;-65
2021/05/24 13:47:55;;;;;;;2.17;1.00;;;26.00;69.60;;;;;;4407969;28;657491;-65
2021/05/24 13:50:42;;;;;;;4.85;1.20;;;25.80;67.80;;;;;;4434582;28;656584;-66
2021/05/24 13:53:28;;;;;;;2.95;1.00;;;25.70;68.40;;;;;;4416010;28;656660;-65
2021/05/24 13:56:15;;;;;;;5.72;1.17;;;25.90;70.20;;;;;;4434660;28;656787;-65
2021/05/24 13:59:03;;;;;;;1.50;0.77;;;25.90;70.00;;;;;;4416042;28;656887;-66
2021/05/24 14:01:51;;;;;;;2.20;0.90;;;25.90;69.10;;;;;;4433669;28;657476;-65
2021/05/24 14:04:38;;;;;;;4.43;0.90;;;25.90;70.50;;;;;;4415867;28;656548;-66
2021/05/24 14:07:25;;;;;;;1.05;0.80;;;26.10;70.30;;;;;;4434215;28;657503;-65
2021/05/24 14:10:15;;;;;;;4.70;0.90;;;26.40;70.10;;;;;;4431122;28;657110;-66
2021/05/24 14:13:02;;;;;;;1.30;0.90;;;26.60;69.10;;;;;;4427440;28;656183;-66
2021/05/24 14:15:49;;;;;;;5.60;1.42;;;26.40;69.20;;;;;;4438852;28;656435;-65
2021/05/24 14:18:37;;;;;;;3.67;1.20;;;26.10;68.10;;;;;;4434189;28;657812;-65
2021/05/24 14:21:24;;;;;;;3.42;1.02;;;26.20;68.70;;;;;;4411633;28;656673;-65
2021/05/24 14:24:11;;;;;;;1.83;1.20;;;26.10;67.90;;;;;;4434265;28;656336;-66
2021/05/24 14:27:00;;;;;;;2.45;1.10;;;26.50;67.80;;;;;;4415917;28;656419;-65
2021/05/24 14:29:47;;;;;;;2.13;1.13;;;26.60;69.00;;;;;;4415566;28;656479;-66
2021/05/24 14:32:34;;;;;;;2.73;1.37;;;26.20;68.70;;;;;;4438801;28;657845;-65